La Carlota, Spain
Current Conditions -  °F | °C
As of 5:00 PM on Friday 21 Nov 2014 (Local Time) from LEBA Reporting Station
Clear Clear  
Wind Chill: 68°   Ceiling: Unl
Heat Index: 68°   Visibility: 6mi
Dew Point: 55°   Wind: 2mph
Humidity: 64%   Direction: 110°ESE
Pressure: 29.88"   Gusts: NA
Location:  37.67°N, 4.93°W
Report Text: LEBA 211600Z 11002KT CAVOK 20/13 Q1012 NOSIG
Loading
Personal Weather Stations






























Interactive Weather Map New forecast layout! Learn more

10-Day Weather Forecast

Advertisements
Track Severe Weather on mobile